Dundee, Ohio
Current Conditions -  °F | °C
As of 10:53 AM on Thursday 18 Dec 2014 (Local Time) from KPHD Reporting Station
Overcast Overcast  
Wind Chill: 25°   Ceiling: 2300
Heat Index: 30°   Visibility: 10mi
Dew Point: 22°   Wind: 5mph
Humidity: 72%   Direction: 280°W
Pressure: 30.24"   Gusts: NA
Location:  40.59°N, 81.61°W
Report Text: KPHD 181553Z AUTO 28004KT 10SM OVC023 M01/M06 A3024 RMK AO2 SLP251 T10111056
Loading
Personal Weather Stations






























Interactive Weather Map New forecast layout! Learn more

10-Day Weather Forecast

Advertisements
Track Severe Weather on mobile